createdAt,value
2023-02-02T00:01:28.621Z,98054.41
2023-02-02T00:03:56.087Z,98056.38
2023-02-02T00:06:24.784Z,98048.22
2023-02-02T00:08:51.678Z,98052.41
2023-02-02T00:11:19.328Z,98052.41
2023-02-02T00:13:46.548Z,98049.69
2023-02-02T00:16:28.515Z,98066.00
2023-02-02T00:18:57.258Z,98059.84
2023-02-02T00:21:24.195Z,98074.66
2023-02-02T00:23:51.556Z,98064.31
2023-02-02T00:26:18.697Z,98062.34
2023-02-02T00:28:45.672Z,98069.03
2023-02-02T00:31:12.391Z,98058.69
2023-02-02T00:33:39.264Z,98069.56
2023-02-02T00:36:06.328Z,98064.66
2023-02-02T00:38:34.605Z,98056.72
2023-02-02T00:41:01.493Z,98056.72
2023-02-02T00:43:28.193Z,98057.44
2023-02-02T00:45:54.891Z,98073.75
2023-02-02T00:48:22.174Z,98066.84
2023-02-02T00:50:48.884Z,98064.66
2023-02-02T00:53:15.579Z,98071.34
2023-02-02T00:55:42.740Z,98073.34
2023-02-02T00:58:09.551Z,98076.06
2023-02-02T01:00:37.709Z,98065.19
2023-02-02T01:03:04.647Z,98063.91
2023-02-02T01:05:32.134Z,98062.47
2023-02-02T01:07:58.826Z,98065.19
2023-02-02T01:10:26.343Z,98085.47
2023-02-02T01:12:54.566Z,98082.56
2023-02-02T01:15:21.485Z,98079.13
2023-02-02T01:17:49.396Z,98083.06
2023-02-02T01:20:18.480Z,98082.34
2023-02-02T01:22:45.865Z,98091.94
2023-02-02T01:25:13.481Z,98088.50
2023-02-02T01:27:40.240Z,98080.56
2023-02-02T01:30:07.626Z,98092.91
2023-02-02T01:32:34.456Z,98090.72
2023-02-02T01:35:01.146Z,98084.56
2023-02-02T01:37:27.873Z,98089.22
2023-02-02T01:39:54.606Z,98085.78
2023-02-02T01:42:22.519Z,98087.06
2023-02-02T01:45:04.747Z,98089.03
2023-02-02T01:47:34.944Z,98078.16
2023-02-02T01:50:02.966Z,98076.19
2023-02-02T01:52:30.302Z,98080.16
2023-02-02T01:55:01.003Z,98088.84
2023-02-02T01:57:38.919Z,98082.69
2023-02-02T02:00:09.669Z,98068.88
2023-02-02T02:02:45.659Z,98079.03
2023-02-02T02:05:16.194Z,98076.84
2023-02-02T02:07:44.490Z,98072.84
2023-02-02T02:10:11.429Z,98074.13
2023-02-02T02:12:38.333Z,98078.81
2023-02-02T02:15:24.692Z,98065.25
2023-02-02T02:18:04.866Z,98061.97
2023-02-02T02:21:24.256Z,98061.97
2023-02-02T02:24:31.699Z,98055.09
2023-02-02T02:27:33.056Z,98057.09
2023-02-02T02:30:42.384Z,98063.78
2023-02-02T02:33:35.626Z,98051.44
2023-02-02T02:36:37.659Z,98061.56
2023-02-02T02:39:26.463Z,98069.72
2023-02-02T02:41:58.998Z,98062.84
2023-02-02T02:44:26.864Z,98060.84
2023-02-02T02:46:55.074Z,98050.50
2023-02-02T02:49:22.127Z,98059.38
2023-02-02T02:51:53.947Z,98057.94
2023-02-02T02:54:31.707Z,98063.38
2023-02-02T02:57:40.430Z,98068.81
2023-02-02T03:00:19.245Z,98063.88
2023-02-02T03:03:06.931Z,98071.09
2023-02-02T03:05:44.518Z,98071.84
2023-02-02T03:08:36.126Z,98065.66
2023-02-02T03:11:04.615Z,98060.25
2023-02-02T03:13:32.048Z,98069.13
2023-02-02T03:15:59.006Z,98084.69
2023-02-02T03:18:28.943Z,98078.53
2023-02-02T03:20:55.970Z,98086.16
2023-02-02T03:23:22.913Z,98092.84
2023-02-02T03:25:50.115Z,98081.44
2023-02-02T03:28:17.512Z,98078.00
2023-02-02T03:30:45.101Z,98083.44
2023-02-02T03:33:12.716Z,98095.97
2023-02-02T03:35:39.647Z,98099.41
2023-02-02T03:38:06.440Z,98096.72
2023-02-02T03:40:33.208Z,98102.13
2023-02-02T03:42:59.878Z,98100.88
2023-02-02T03:45:30.480Z,98088.56
2023-02-02T03:47:57.162Z,98085.91
2023-02-02T03:50:25.263Z,98098.03
2023-02-02T03:52:52.067Z,98100.56
2023-02-02T03:55:18.740Z,98101.81
2023-02-02T03:57:45.518Z,98097.13
2023-02-02T04:00:12.745Z,98103.06
2023-02-02T04:02:40.089Z,98095.44
2023-02-02T04:05:13.420Z,98095.44
2023-02-02T04:07:40.551Z,98073.38
2023-02-02T04:10:07.552Z,98085.72
2023-02-02T04:12:34.291Z,98076.31
2023-02-02T04:15:01.003Z,98081.72
2023-02-02T04:17:27.808Z,98087.91
2023-02-02T04:19:58.175Z,98085.19
2023-02-02T04:22:26.177Z,98089.34
2023-02-02T04:24:52.978Z,98096.06
2023-02-02T04:27:19.710Z,98097.31
2023-02-02T04:29:46.647Z,98089.69
2023-02-02T04:32:15.997Z,98103.28
2023-02-02T04:34:42.929Z,98099.31
2023-02-02T04:37:10.556Z,98111.63
2023-02-02T04:39:37.584Z,98107.16
2023-02-02T04:42:04.457Z,98107.34
2023-02-02T04:44:31.284Z,98102.63
2023-02-02T04:46:57.999Z,98101.38
2023-02-02T04:49:24.801Z,98110.25
2023-02-02T04:51:51.583Z,98114.97
2023-02-02T04:54:18.444Z,98117.66
2023-02-02T04:56:45.104Z,98124.38
2023-02-02T04:59:12.160Z,98129.81
2023-02-02T05:01:38.870Z,98117.66
2023-02-02T05:04:05.797Z,98125.09
2023-02-02T05:06:32.609Z,98118.41
2023-02-02T05:09:00.071Z,98119.13
2023-02-02T05:11:26.825Z,98120.81
2023-02-02T05:13:55.002Z,98117.34
2023-02-02T05:16:22.621Z,98112.66
2023-02-02T05:18:54.855Z,98131.69
2023-02-02T05:21:21.643Z,98131.88
2023-02-02T05:23:48.695Z,98122.25
2023-02-02T05:26:18.778Z,98124.47
2023-02-02T05:28:45.722Z,98133.34
2023-02-02T05:31:12.756Z,98138.56
2023-02-02T05:33:39.555Z,98135.13
2023-02-02T05:36:07.151Z,98135.84
2023-02-02T05:38:34.388Z,98125.72
2023-02-02T05:41:01.612Z,98133.13
2023-02-02T05:43:29.933Z,98134.41
2023-02-02T05:45:56.843Z,98131.88
2023-02-02T05:48:23.581Z,98142.75
2023-02-02T05:50:57.248Z,98143.28
2023-02-02T05:53:24.404Z,98150.16
2023-02-02T05:55:51.056Z,98144.22
2023-02-02T05:58:18.006Z,98138.78
2023-02-02T06:00:44.805Z,98128.66
2023-02-02T06:03:13.181Z,98144.41
2023-02-02T06:05:40.843Z,98140.44
2023-02-02T06:08:07.595Z,98139.91
2023-02-02T06:10:35.407Z,98143.38
2023-02-02T06:13:02.575Z,98137.94
2023-02-02T06:15:29.531Z,98141.91
2023-02-02T06:17:58.044Z,98136.47
2023-02-02T06:20:25.521Z,98135.94
2023-02-02T06:22:52.805Z,98133.22
2023-02-02T06:26:09.406Z,98138.13
2023-02-02T06:28:36.470Z,98127.44
2023-02-02T06:31:08.103Z,98139.47
2023-02-02T06:33:35.517Z,98138.09
2023-02-02T06:36:04.176Z,98132.38
2023-02-02T06:38:31.857Z,98137.72
2023-02-02T06:41:02.913Z,98135.69
2023-02-02T06:43:31.481Z,98149.00
2023-02-02T06:45:59.146Z,98151.78
2023-02-02T06:48:27.471Z,98153.22
2023-02-02T06:50:54.898Z,98155.84
2023-02-02T06:53:23.252Z,98165.19
2023-02-02T06:55:57.369Z,98166.50
2023-02-02T06:58:24.589Z,98168.75
2023-02-02T07:00:51.897Z,98176.59
2023-02-02T07:03:21.463Z,98176.09
2023-02-02T07:05:51.435Z,98178.59
2023-02-02T07:08:18.259Z,98181.75
2023-02-02T07:11:12.111Z,98185.66
2023-02-02T07:13:31.824Z,98187.22
2023-02-02T07:15:58.675Z,98184.00
2023-02-02T07:18:25.507Z,98179.38
2023-02-02T07:20:52.176Z,98173.50
2023-02-02T07:23:18.908Z,98176.00
2023-02-02T07:25:45.672Z,98163.69
2023-02-02T07:28:12.420Z,98174.47
2023-02-02T07:30:39.241Z,98179.09
2023-02-02T07:33:06.053Z,98179.53
2023-02-02T07:35:32.778Z,98179.59
2023-02-02T07:37:59.530Z,98175.16
2023-02-02T07:40:26.228Z,98174.56
2023-02-02T07:42:53.002Z,98163.47
2023-02-02T07:45:24.582Z,98177.47
2023-02-02T07:47:58.128Z,98167.28
2023-02-02T07:50:25.544Z,98178.13
2023-02-02T07:52:52.930Z,98164.28
2023-02-02T07:55:20.282Z,98168.47
2023-02-02T07:57:47.197Z,98167.16
2023-02-02T08:00:14.382Z,98166.56
2023-02-02T08:02:41.120Z,98163.59
2023-02-02T08:05:08.293Z,98164.84
2023-02-02T08:07:35.312Z,98179.31
2023-02-02T08:10:05.559Z,98163.78
2023-02-02T08:12:32.604Z,98167.69
2023-02-02T08:14:59.427Z,98164.25
2023-02-02T08:17:26.295Z,98155.84
2023-02-02T08:19:52.987Z,98160.72
2023-02-02T08:22:20.476Z,98168.34
2023-02-02T08:24:48.099Z,98169.44
2023-02-02T08:27:16.173Z,98170.66
2023-02-02T08:29:43.338Z,98176.09
2023-02-02T08:32:10.178Z,98180.34
2023-02-02T08:34:37.069Z,98183.50
2023-02-02T08:37:04.143Z,98183.50
2023-02-02T08:39:30.942Z,98175.81
2023-02-02T08:41:57.888Z,98176.53
2023-02-02T08:44:28.441Z,98188.63
2023-02-02T08:47:12.241Z,98199.69
2023-02-02T08:49:38.983Z,98198.22
2023-02-02T08:52:05.728Z,98199.84
2023-02-02T08:54:32.426Z,98213.91
2023-02-02T08:56:59.253Z,98216.84
2023-02-02T08:59:26.138Z,98225.41
2023-02-02T09:01:53.022Z,98225.69
2023-02-02T09:04:19.854Z,98229.13
2023-02-02T09:06:46.727Z,98245.41
2023-02-02T09:09:15.261Z,98247.16
2023-02-02T09:11:42.624Z,98256.03
2023-02-02T09:14:10.911Z,98256.97
2023-02-02T09:16:38.038Z,98260.72
2023-02-02T09:19:05.791Z,98266.06
2023-02-02T09:21:37.071Z,98260.47
2023-02-02T09:24:09.045Z,98255.63
2023-02-02T09:26:36.199Z,98263.97
2023-02-02T09:29:04.933Z,98267.72
2023-02-02T09:31:35.106Z,98265.00
2023-02-02T09:34:08.385Z,98266.13
2023-02-02T09:36:35.627Z,98269.78
2023-02-02T09:39:02.369Z,98275.41
2023-02-02T09:41:38.282Z,98282.03
2023-02-02T09:44:36.869Z,98288.66
2023-02-02T09:47:23.169Z,98294.91
2023-02-02T09:50:16.981Z,98305.47
2023-02-02T09:52:45.612Z,98294.38
2023-02-02T09:55:16.270Z,98301.19
2023-02-02T09:57:47.383Z,98290.22
2023-02-02T10:00:20.429Z,98285.53
2023-02-02T10:02:50.036Z,98292.47
2023-02-02T10:05:27.553Z,98295.84
2023-02-02T10:07:59.045Z,98298.81
2023-02-02T10:10:33.859Z,98303.91
2023-02-02T10:13:06.874Z,98300.41
2023-02-02T10:15:33.730Z,98308.59
2023-02-02T10:18:15.710Z,98315.53
2023-02-02T10:20:56.525Z,98317.22
2023-02-02T10:23:30.872Z,98316.09
2023-02-02T10:26:04.449Z,98312.75
2023-02-02T10:28:43.442Z,98311.91
2023-02-02T10:31:36.992Z,98311.50
2023-02-02T10:34:08.850Z,98308.50
2023-02-02T10:36:51.097Z,98313.97
2023-02-02T10:39:39.409Z,98315.44
2023-02-02T10:42:28.007Z,98309.63
2023-02-02T10:45:04.868Z,98311.38
2023-02-02T10:47:40.329Z,98309.38
2023-02-02T10:50:19.062Z,98311.81
2023-02-02T10:53:00.929Z,98323.75
2023-02-02T10:55:32.493Z,98312.81
2023-02-02T10:58:11.327Z,98320.34
2023-02-02T11:00:53.218Z,98310.66
2023-02-02T11:03:23.069Z,98316.09
2023-02-02T11:06:08.408Z,98316.81
2023-02-02T11:08:42.340Z,98326.97
2023-02-02T11:11:38.728Z,98307.41
2023-02-02T11:14:08.537Z,98318.19
2023-02-02T11:16:43.277Z,98312.44
2023-02-02T11:19:21.231Z,98315.38
2023-02-02T11:21:49.606Z,98310.97
2023-02-02T11:24:28.848Z,98316.50
2023-02-02T11:27:06.412Z,98309.72
2023-02-02T11:29:41.511Z,98318.91
2023-02-02T11:32:24.429Z,98313.88
2023-02-02T11:35:17.452Z,98301.78
2023-02-02T11:38:09.790Z,98293.81
2023-02-02T11:40:42.674Z,98297.50
2023-02-02T11:43:24.657Z,98294.97
2023-02-02T11:46:02.968Z,98303.88
2023-02-02T11:48:39.903Z,98307.63
2023-02-02T11:51:08.163Z,98299.56
2023-02-02T11:53:46.008Z,98305.22
2023-02-02T11:56:22.522Z,98310.53
2023-02-02T11:58:59.172Z,98314.16
2023-02-02T12:01:35.438Z,98313.69
2023-02-02T12:04:04.643Z,98304.25
2023-02-02T12:06:37.349Z,98304.88
2023-02-02T12:09:13.274Z,98306.03
2023-02-02T12:12:06.313Z,98317.69
2023-02-02T12:14:45.993Z,98319.31
2023-02-02T12:17:21.778Z,98316.22
2023-02-02T12:20:00.702Z,98323.06
2023-02-02T12:22:55.591Z,98322.06
2023-02-02T12:25:55.210Z,98315.72
2023-02-02T12:28:24.516Z,98325.59
2023-02-02T12:31:02.602Z,98321.34
2023-02-02T12:33:34.929Z,98316.91
2023-02-02T12:36:10.582Z,98301.25
2023-02-02T12:38:57.839Z,98297.53
2023-02-02T12:41:36.911Z,98292.91
2023-02-02T12:44:12.792Z,98280.34
2023-02-02T12:46:53.332Z,98281.31
2023-02-02T12:49:43.284Z,98282.50
2023-02-02T12:52:19.706Z,98281.06
2023-02-02T12:54:57.428Z,98284.22
2023-02-02T12:57:50.991Z,98283.00
2023-02-02T13:00:45.908Z,98281.19
2023-02-02T13:03:24.582Z,98287.47
2023-02-02T13:06:32.739Z,98303.22
2023-02-02T13:09:09.999Z,98299.88
2023-02-02T13:11:49.855Z,98305.13
2023-02-02T13:14:21.656Z,98306.22
2023-02-02T13:16:51.794Z,98318.50
2023-02-02T13:19:39.410Z,98298.25
2023-02-02T13:22:09.125Z,98299.53
2023-02-02T13:24:37.713Z,98300.56
2023-02-02T13:27:06.412Z,98309.84
2023-02-02T13:29:48.779Z,98305.75
2023-02-02T13:32:26.171Z,98305.13
2023-02-02T13:35:00.838Z,98312.34
2023-02-02T13:37:32.527Z,98303.97
2023-02-02T13:40:25.397Z,98311.38
2023-02-02T13:43:01.627Z,98315.09
2023-02-02T13:45:50.246Z,98313.47
2023-02-02T13:48:19.752Z,98312.47
2023-02-02T13:51:11.495Z,98308.25
2023-02-02T13:54:15.825Z,98315.75
2023-02-02T13:56:51.679Z,98308.16
2023-02-02T13:59:32.034Z,98319.66
2023-02-02T14:01:59.441Z,98322.03
2023-02-02T14:04:31.041Z,98321.75
2023-02-02T14:09:33.802Z,98340.38
2023-02-02T14:12:07.977Z,98336.91
2023-02-02T14:14:36.151Z,98334.19
2023-02-02T14:17:06.567Z,98334.41
2023-02-02T14:19:33.251Z,98342.69
2023-02-02T14:22:01.661Z,98328.22
2023-02-02T14:24:28.355Z,98330.75
2023-02-02T14:26:56.740Z,98326.66
2023-02-02T14:29:31.414Z,98329.50
2023-02-02T14:32:02.498Z,98333.97
2023-02-02T14:34:42.022Z,98332.81
2023-02-02T14:37:21.146Z,98327.69
2023-02-02T14:40:06.512Z,98319.53
2023-02-02T14:43:22.879Z,98314.19
2023-02-02T14:46:15.255Z,98314.31
2023-02-02T14:48:44.599Z,98324.56
2023-02-02T14:51:21.435Z,98331.47
2023-02-02T14:53:54.528Z,98343.03
2023-02-02T14:56:22.517Z,98340.25
2023-02-02T14:59:00.308Z,98340.13
2023-02-02T15:01:30.256Z,98341.69
2023-02-02T15:04:22.126Z,98344.56
2023-02-02T15:06:52.504Z,98351.28
2023-02-02T15:09:28.378Z,98354.59
2023-02-02T15:12:06.832Z,98351.81
2023-02-02T15:15:04.279Z,98347.19
2023-02-02T15:17:46.513Z,98351.78
2023-02-02T15:20:20.858Z,98353.22
2023-02-02T15:22:47.600Z,98359.66
2023-02-02T15:25:20.181Z,98363.75
2023-02-02T15:27:56.798Z,98365.06
2023-02-02T15:30:24.598Z,98374.91
2023-02-02T15:32:52.712Z,98376.16
2023-02-02T15:35:26.277Z,98387.31
2023-02-02T15:38:07.492Z,98391.56
2023-02-02T15:40:37.453Z,98392.66
2023-02-02T15:43:06.319Z,98388.84
2023-02-02T15:45:35.469Z,98385.69
2023-02-02T15:48:07.380Z,98385.47
2023-02-02T15:50:34.248Z,98384.63
2023-02-02T15:53:01.637Z,98377.41
2023-02-02T15:55:34.215Z,98379.97
2023-02-02T15:58:02.260Z,98377.09
2023-02-02T16:00:38.141Z,98388.97
2023-02-02T16:03:19.797Z,98402.09
2023-02-02T16:05:54.904Z,98394.81
2023-02-02T16:08:27.780Z,98401.59
2023-02-02T16:11:09.273Z,98399.44
2023-02-02T16:13:36.816Z,98404.66
2023-02-02T16:16:06.883Z,98403.47
2023-02-02T16:18:35.420Z,98407.72
2023-02-02T16:21:07.016Z,98408.50
2023-02-02T16:23:35.365Z,98387.81
2023-02-02T16:26:03.784Z,98396.25
2023-02-02T16:28:31.004Z,98402.84
2023-02-02T16:31:01.060Z,98407.81
2023-02-02T16:33:38.623Z,98424.91
2023-02-02T16:36:25.462Z,98433.81
2023-02-02T16:38:54.096Z,98428.88
2023-02-02T16:41:33.416Z,98439.50
2023-02-02T16:44:48.781Z,98446.16
2023-02-02T16:47:28.055Z,98437.78
2023-02-02T16:50:10.416Z,98444.16
2023-02-02T16:52:51.152Z,98447.84
2023-02-02T16:55:18.638Z,98462.13
2023-02-02T16:57:47.849Z,98449.78
2023-02-02T17:00:21.810Z,98457.13
2023-02-02T17:03:03.369Z,98455.41
2023-02-02T17:05:33.099Z,98453.41
2023-02-02T17:08:05.612Z,98465.50
2023-02-02T17:10:38.314Z,98458.09
2023-02-02T17:13:30.858Z,98473.97
2023-02-02T17:15:58.679Z,98481.88
2023-02-02T17:18:25.746Z,98483.41
2023-02-02T17:20:57.771Z,98481.00
2023-02-02T17:23:26.503Z,98484.56
2023-02-02T17:25:53.718Z,98483.72
2023-02-02T17:28:22.821Z,98486.06
2023-02-02T17:31:11.708Z,98491.88
2023-02-02T17:33:39.448Z,98494.94
2023-02-02T17:36:06.571Z,98498.34
2023-02-02T17:38:33.783Z,98498.78
2023-02-02T17:41:02.063Z,98495.25
2023-02-02T17:43:30.238Z,98499.88
2023-02-02T17:45:56.983Z,98491.97
2023-02-02T17:48:23.832Z,98489.66
2023-02-02T17:50:50.547Z,98488.66
2023-02-02T17:53:21.940Z,98499.22
2023-02-02T17:55:49.935Z,98502.16
2023-02-02T17:58:19.687Z,98503.31
2023-02-02T18:00:47.941Z,98505.00
2023-02-02T18:03:31.859Z,98510.66
2023-02-02T18:06:01.858Z,98509.63
2023-02-02T18:08:29.959Z,98518.00
2023-02-02T18:10:56.856Z,98514.75
2023-02-02T18:13:23.736Z,98511.53
2023-02-02T18:15:51.289Z,98515.72
2023-02-02T18:18:18.063Z,98513.97
2023-02-02T18:20:46.952Z,98520.84
2023-02-02T18:23:15.018Z,98512.94
2023-02-02T18:25:42.143Z,98517.63
2023-02-02T18:28:10.600Z,98518.56
2023-02-02T18:30:41.409Z,98523.72
2023-02-02T18:33:16.941Z,98530.63
2023-02-02T18:35:44.985Z,98528.63
2023-02-02T18:38:13.009Z,98524.13
2023-02-02T18:40:39.739Z,98525.63
2023-02-02T18:43:06.422Z,98516.94
2023-02-02T18:45:33.243Z,98515.69
2023-02-02T18:47:59.928Z,98505.78
2023-02-02T18:50:26.745Z,98506.50
2023-02-02T18:52:53.442Z,98506.50
2023-02-02T18:55:20.249Z,98502.53
2023-02-02T18:57:47.408Z,98499.28
2023-02-02T19:00:14.898Z,98490.59
2023-02-02T19:02:41.567Z,98497.53
2023-02-02T19:05:27.264Z,98486.13
2023-02-02T19:07:58.091Z,98486.13
2023-02-02T19:10:25.438Z,98480.41
2023-02-02T19:13:18.299Z,98488.84
2023-02-02T19:15:47.105Z,98490.09
2023-02-02T19:18:22.523Z,98495.31
2023-02-02T19:20:50.259Z,98499.00
2023-02-02T19:23:19.767Z,98488.84
2023-02-02T19:25:51.435Z,98488.84
2023-02-02T19:28:23.351Z,98485.41
2023-02-02T19:30:52.714Z,98493.75
2023-02-02T19:33:19.899Z,98475.47
2023-02-02T19:35:49.353Z,98495.22
2023-02-02T19:38:17.974Z,98491.03
2023-02-02T19:40:44.984Z,98491.03
2023-02-02T19:43:27.581Z,98489.59
2023-02-02T19:45:55.592Z,98482.88
2023-02-02T19:48:27.876Z,98488.84
2023-02-02T19:50:55.758Z,98500.97
2023-02-02T19:53:30.611Z,98497.53
2023-02-02T19:55:57.331Z,98490.09
2023-02-02T19:58:29.302Z,98492.81
2023-02-02T20:00:58.078Z,98492.09
2023-02-02T20:03:43.189Z,98497.53
2023-02-02T20:06:24.986Z,98502.97
2023-02-02T20:08:52.056Z,98502.97
2023-02-02T20:11:35.522Z,98496.28
2023-02-02T20:14:18.689Z,98488.66
2023-02-02T20:16:49.501Z,98497.53
2023-02-02T20:19:20.284Z,98495.75
2023-02-02T20:21:50.190Z,98491.38
2023-02-02T20:24:18.065Z,98489.88
2023-02-02T20:26:45.497Z,98490.41
2023-02-02T20:29:43.797Z,98496.03
2023-02-02T20:32:41.815Z,98488.66
2023-02-02T20:35:33.865Z,98492.81
2023-02-02T20:38:00.975Z,98489.38
2023-02-02T20:40:29.435Z,98487.88
2023-02-02T20:42:58.305Z,98491.38
2023-02-02T20:45:25.637Z,98492.81
2023-02-02T20:47:52.831Z,98493.56
2023-02-02T20:50:21.520Z,98489.38
2023-02-02T20:52:49.525Z,98498.75
2023-02-02T20:55:16.266Z,98500.03
2023-02-02T20:57:43.100Z,98498.75
2023-02-02T21:00:12.365Z,98507.69
2023-02-02T21:02:40.360Z,98508.41
2023-02-02T21:05:14.641Z,98515.84
2023-02-02T21:07:41.413Z,98513.13
2023-02-02T21:10:08.604Z,98514.34
2023-02-02T21:12:35.359Z,98518.56
2023-02-02T21:15:03.991Z,98529.44
2023-02-02T21:17:30.749Z,98523.22
2023-02-02T21:19:57.407Z,98516.34
2023-02-02T21:22:24.150Z,98519.78
2023-02-02T21:24:50.816Z,98515.84
2023-02-02T21:27:17.753Z,98527.44
2023-02-02T21:29:44.545Z,98514.34
2023-02-02T21:32:11.452Z,98504.97
2023-02-02T21:34:38.288Z,98505.47
2023-02-02T21:37:12.271Z,98512.16
2023-02-02T21:39:39.140Z,98500.53
2023-02-02T21:42:08.851Z,98512.88
2023-02-02T21:44:41.369Z,98517.59
2023-02-02T21:47:21.409Z,98512.88
2023-02-02T21:49:48.255Z,98510.91
2023-02-02T21:52:16.657Z,98510.16
2023-02-02T21:54:44.208Z,98528.66
2023-02-02T21:57:21.121Z,98530.66
2023-02-02T21:59:57.375Z,98529.72
2023-02-02T22:02:33.299Z,98521.03
2023-02-02T22:05:02.193Z,98519.06
2023-02-02T22:07:29.061Z,98522.28
2023-02-02T22:09:55.963Z,98531.19
2023-02-02T22:12:28.467Z,98528.47
2023-02-02T22:15:00.008Z,98531.19
2023-02-02T22:17:45.311Z,98521.78
2023-02-02T22:20:15.140Z,98522.00
2023-02-02T22:22:44.980Z,98523.22
2023-02-02T22:25:17.900Z,98533.38
2023-02-02T22:27:47.778Z,98526.72
2023-02-02T22:30:23.476Z,98520.50
2023-02-02T22:32:50.358Z,98524.72
2023-02-02T22:35:17.283Z,98527.66
2023-02-02T22:37:44.042Z,98517.28
2023-02-02T22:40:11.345Z,98522.22
2023-02-02T22:42:38.173Z,98518.75
2023-02-02T22:45:05.176Z,98516.78
2023-02-02T22:47:32.312Z,98518.75
2023-02-02T22:49:58.948Z,98520.75
2023-02-02T22:52:25.706Z,98527.84
2023-02-02T22:54:52.411Z,98526.91
2023-02-02T22:57:19.150Z,98541.75
2023-02-02T22:59:45.839Z,98537.06
2023-02-02T23:02:12.536Z,98533.38
2023-02-02T23:04:39.181Z,98529.44
2023-02-02T23:07:05.911Z,98533.59
2023-02-02T23:09:32.554Z,98537.06
2023-02-02T23:11:59.293Z,98526.19
2023-02-02T23:14:25.972Z,98537.78
2023-02-02T23:16:52.768Z,98546.47
2023-02-02T23:19:19.404Z,98556.09
2023-02-02T23:21:46.131Z,98554.63
2023-02-02T23:24:12.791Z,98550.66
2023-02-02T23:26:39.635Z,98545.22
2023-02-02T23:29:06.509Z,98561.72
2023-02-02T23:31:33.456Z,98562.47
2023-02-02T23:34:00.188Z,98562.47
2023-02-02T23:36:26.951Z,98557.75
2023-02-02T23:38:53.593Z,98569.41
2023-02-02T23:41:21.046Z,98568.13
2023-02-02T23:43:49.829Z,98559.00
2023-02-02T23:46:17.452Z,98561.00
2023-02-02T23:48:44.695Z,98574.59
2023-02-02T23:51:12.031Z,98567.69
2023-02-02T23:53:38.931Z,98582.03
2023-02-02T23:56:05.679Z,98577.31
2023-02-02T23:58:32.479Z,98580.56
